Arthur, ND

4:24 AM CST on February 10, 2016 (GMT -0600)
Peterson Farms Seed | | Change Station
CLOSE
Current Station
Personal Weather Station
Location: Harwood, ND
Elevation: 896 ft
Nearby Weather Stations

Elev 896 ft 46.96 °N, 97.03 °W | Updated 8 seconds ago

Snow
Snow
4.3 °F
Feels Like 4 °F
N
0.0
Wind Variable Wind from East
Gusts 1.0 mph

Today
High -- | Low -- °F
--% Chance of Precip.
Yesterday
High -- | Low -- °F
Precip. -- in
Pressure 30.19 in
Visibility 10.0 miles
Clouds Overcast 5500 ft
Windchill 4 °F
Dew Point 1 °F
Humidity 85%
Rainfall 0.00 in
Snow Depth Not available.
7:42 AM 5:44 PM
Waxing Crescent, 4% visible
METAR KFAR 100953Z 00000KT 10SM OVC055 M14/M18 A3012 RMK AO2 SLP223 T11441183
Pressure 30.19 in
Visibility 10.0 miles
Clouds Overcast 5500 ft
Windchill 4 °F
Dew Point 1 °F
Humidity 85%
Rainfall 0.00 in
Snow Depth Not available.
7:42 AM 5:44 PM
Waxing Crescent, 4% visible
METAR KFAR 100953Z 00000KT 10SM OVC055 M14/M18 A3012 RMK AO2 SLP223 T11441183

10-Day Weather Forecast

Almanac

Astronomy

Feb. 10, 2016 Rise Set
Actual Time
Civil Twilight
Nautical Twilight
Astronomical Twilight
Moon
Length of Visible Light
Length of Day
Tomorrow will be .
, % of the Moon is Illuminated

Today's Extremes

State Highs State Lows

Community

WunderPhotos

Upload Photos

1,891,830 photos uploaded!

WunderBlog® & News

Nearby

Air Quality

  Air Quality AQ Index Pollutant
Not available.

Snow Depth

Station Depth Elevation

Earthquake Activity

City Distance Mag. Time & Date
Minimum magnitude displayed is 2.5.

Coastal Water Temperatures

Place Temperature

Stations

Nearby Weather Stations

Station Location Temp. Windchill Dew Point Humidity Wind Precip. Elev Updated Type
                   

Watches & Warnings

There are currently no watches in effect.